createdAt,value
2022-09-23T00:00:31.930Z,80.76
2022-09-23T00:03:22.528Z,80.65
2022-09-23T00:06:02.135Z,80.65
2022-09-23T00:08:33.239Z,80.88
2022-09-23T00:11:09.020Z,81.07
2022-09-23T00:13:42.535Z,81.31
2022-09-23T00:16:18.293Z,81.34
2022-09-23T00:18:50.657Z,81.63
2022-09-23T00:21:22.871Z,81.35
2022-09-23T00:23:54.411Z,81.05
2022-09-23T00:26:25.963Z,81.15
2022-09-23T00:28:56.966Z,81.06
2022-09-23T00:31:29.876Z,81.06
2022-09-23T00:34:02.575Z,80.95
2022-09-23T00:36:34.523Z,81.14
2022-09-23T00:39:06.161Z,81.00
2022-09-23T00:41:37.694Z,80.99
2022-09-23T00:44:20.411Z,80.69
2022-09-23T00:46:51.913Z,80.67
2022-09-23T00:49:29.989Z,80.64
2022-09-23T00:52:08.026Z,80.81
2022-09-23T00:54:39.167Z,80.53
2022-09-23T00:57:08.921Z,80.49
2022-09-23T00:59:40.195Z,80.46
2022-09-23T01:02:13.190Z,80.74
2022-09-23T01:04:44.417Z,80.73
2022-09-23T01:07:15.193Z,81.00
2022-09-23T01:09:47.088Z,80.81
2022-09-23T01:12:35.885Z,80.86
2022-09-23T01:15:14.898Z,81.16
2022-09-23T01:17:54.987Z,81.06
2022-09-23T01:20:43.571Z,81.21
2022-09-23T01:23:37.331Z,80.88
2022-09-23T01:26:29.639Z,80.82
2022-09-23T01:29:29.253Z,80.95
2022-09-23T01:32:07.182Z,80.93
2022-09-23T01:34:47.123Z,81.26
2022-09-23T01:37:26.036Z,80.98
2022-09-23T01:40:05.401Z,80.87
2022-09-23T01:42:43.201Z,80.98
2022-09-23T01:45:16.276Z,80.76
2022-09-23T01:47:53.664Z,80.77
2022-09-23T01:50:46.267Z,80.56
2022-09-23T01:53:23.289Z,80.71
2022-09-23T01:55:58.337Z,80.68
2022-09-23T01:58:34.232Z,80.72
2022-09-23T02:01:08.362Z,81.00
2022-09-23T02:03:46.393Z,81.20
2022-09-23T02:06:22.184Z,81.17
2022-09-23T02:09:00.366Z,80.87
2022-09-23T02:11:36.460Z,80.72
2022-09-23T02:14:15.524Z,80.85
2022-09-23T02:16:49.277Z,80.98
2022-09-23T02:19:27.130Z,81.13
2022-09-23T02:22:01.091Z,81.25
2022-09-23T02:24:35.684Z,81.30
2022-09-23T02:27:25.873Z,81.31
2022-09-23T02:30:04.579Z,81.30
2022-09-23T02:32:42.238Z,81.38
2022-09-23T02:35:22.787Z,81.38
2022-09-23T02:38:21.732Z,81.09
2022-09-23T02:41:12.494Z,81.05
2022-09-23T02:43:52.481Z,81.19
2022-09-23T02:46:24.831Z,81.02
2022-09-23T02:49:01.304Z,81.01
2022-09-23T02:51:37.923Z,80.65
2022-09-23T02:54:12.527Z,80.91
2022-09-23T02:56:44.207Z,80.73
2022-09-23T02:59:22.253Z,80.90
2022-09-23T03:02:20.873Z,80.94
2022-09-23T03:05:04.053Z,81.11
2022-09-23T03:08:12.883Z,81.38
2022-09-23T03:11:08.699Z,81.26
2022-09-23T03:14:17.454Z,81.23
2022-09-23T03:17:14.603Z,81.24
2022-09-23T03:19:51.142Z,81.28
2022-09-23T03:22:28.988Z,81.44
2022-09-23T03:25:01.444Z,81.57
2022-09-23T03:27:42.543Z,81.20
2022-09-23T03:30:15.439Z,81.54
2022-09-23T03:32:51.354Z,81.46
2022-09-23T03:35:25.157Z,81.53
2022-09-23T03:38:02.759Z,81.49
2022-09-23T03:40:43.599Z,81.64
2022-09-23T03:43:18.048Z,81.35
2022-09-23T03:45:49.049Z,81.28
2022-09-23T03:48:21.543Z,81.28
2022-09-23T03:50:52.742Z,81.25
2022-09-23T03:53:23.630Z,81.11
2022-09-23T03:55:54.470Z,81.12
2022-09-23T03:58:25.174Z,80.89
2022-09-23T04:00:57.740Z,80.77
2022-09-23T04:03:29.438Z,81.08
2022-09-23T04:06:01.008Z,81.01
2022-09-23T04:08:31.916Z,81.21
2022-09-23T04:11:04.757Z,81.35
2022-09-23T04:13:35.738Z,81.34
2022-09-23T04:16:07.059Z,81.41
2022-09-23T04:18:36.566Z,81.40
2022-09-23T04:21:08.045Z,81.34
2022-09-23T04:23:38.945Z,81.33
2022-09-23T04:26:10.564Z,81.35
2022-09-23T04:28:42.011Z,81.57
2022-09-23T04:31:11.332Z,81.57
2022-09-23T04:33:42.364Z,81.80
2022-09-23T04:36:13.427Z,81.72
2022-09-23T04:38:46.631Z,81.81
2022-09-23T04:41:17.973Z,81.86
2022-09-23T04:43:47.401Z,81.63
2022-09-23T04:46:18.553Z,81.72
2022-09-23T04:48:49.742Z,81.84
2022-09-23T04:51:22.216Z,81.86
2022-09-23T04:53:55.039Z,81.88
2022-09-23T04:56:27.559Z,82.10
2022-09-23T04:58:58.983Z,82.13
2022-09-23T05:01:29.336Z,82.06
2022-09-23T05:04:03.370Z,82.03
2022-09-23T05:06:35.710Z,81.99
2022-09-23T05:09:08.751Z,82.01
2022-09-23T05:11:40.460Z,81.96
2022-09-23T05:14:11.816Z,81.70
2022-09-23T05:16:43.065Z,81.74
2022-09-23T05:19:13.954Z,81.94
2022-09-23T05:21:45.147Z,81.87
2022-09-23T05:24:17.244Z,81.78
2022-09-23T05:26:48.187Z,81.68
2022-09-23T05:29:18.907Z,81.80
2022-09-23T05:31:49.865Z,81.68
2022-09-23T05:34:20.824Z,82.03
2022-09-23T05:36:51.941Z,81.72
2022-09-23T05:39:25.958Z,82.03
2022-09-23T05:41:57.040Z,82.05
2022-09-23T05:44:28.329Z,81.88
2022-09-23T05:46:59.380Z,81.83
2022-09-23T05:49:48.653Z,82.02
2022-09-23T05:52:21.915Z,82.00
2022-09-23T05:54:52.874Z,82.02
2022-09-23T05:57:23.705Z,82.25
2022-09-23T05:59:54.742Z,82.36
2022-09-23T06:02:25.899Z,82.53
2022-09-23T06:04:57.141Z,82.49
2022-09-23T06:07:28.443Z,82.50
2022-09-23T06:09:59.576Z,82.54
2022-09-23T06:12:30.360Z,82.47
2022-09-23T06:15:01.222Z,82.41
2022-09-23T06:17:32.181Z,82.59
2022-09-23T06:20:03.688Z,82.70
2022-09-23T06:22:38.389Z,82.66
2022-09-23T06:25:12.302Z,82.62
2022-09-23T06:27:43.178Z,82.46
2022-09-23T06:30:17.115Z,82.45
2022-09-23T06:32:53.096Z,82.54
2022-09-23T06:35:27.756Z,82.32
2022-09-23T06:37:58.867Z,82.35
2022-09-23T06:40:30.029Z,82.28
2022-09-23T06:42:59.740Z,82.35
2022-09-23T06:45:30.676Z,82.44
2022-09-23T06:48:08.340Z,82.72
2022-09-23T06:50:39.349Z,83.09
2022-09-23T06:53:10.181Z,82.87
2022-09-23T06:55:41.735Z,82.68
2022-09-23T06:58:13.225Z,82.66
2022-09-23T07:00:44.079Z,82.71
2022-09-23T07:03:14.657Z,82.78
2022-09-23T07:05:46.007Z,82.87
2022-09-23T07:08:17.564Z,83.07
2022-09-23T07:10:54.307Z,83.14
2022-09-23T07:13:26.268Z,83.48
2022-09-23T07:16:01.221Z,83.74
2022-09-23T07:18:36.817Z,83.95
2022-09-23T07:21:15.343Z,84.34
2022-09-23T07:23:48.128Z,84.59
2022-09-23T07:26:22.907Z,84.60
2022-09-23T07:28:57.343Z,84.53
2022-09-23T07:31:38.248Z,84.54
2022-09-23T07:34:11.833Z,84.63
2022-09-23T07:36:43.513Z,84.86
2022-09-23T07:39:15.731Z,84.85
2022-09-23T07:41:46.732Z,85.17
2022-09-23T07:44:21.931Z,85.34
2022-09-23T07:46:52.944Z,85.32
2022-09-23T07:49:26.495Z,85.39
2022-09-23T07:51:57.323Z,85.34
2022-09-23T07:54:29.820Z,85.34
2022-09-23T07:57:01.258Z,85.20
2022-09-23T07:59:32.358Z,85.27
2022-09-23T08:02:03.252Z,85.17
2022-09-23T08:04:34.958Z,85.25
2022-09-23T08:07:08.148Z,85.24
2022-09-23T08:09:42.058Z,84.88
2022-09-23T08:12:19.748Z,84.65
2022-09-23T08:14:50.553Z,84.47
2022-09-23T08:17:21.833Z,82.96
2022-09-23T08:19:54.121Z,82.62
2022-09-23T08:22:25.227Z,81.22
2022-09-23T08:24:56.891Z,80.09
2022-09-23T08:27:29.527Z,77.98
2022-09-23T08:30:00.909Z,75.25
2022-09-23T08:32:32.287Z,74.58
2022-09-23T08:35:03.153Z,74.62
2022-09-23T08:37:33.934Z,74.05
2022-09-23T08:40:03.731Z,72.50
2022-09-23T08:42:39.117Z,72.59
2022-09-23T08:45:18.955Z,72.75
2022-09-23T08:47:57.839Z,71.20
2022-09-23T08:50:34.874Z,70.40
2022-09-23T08:53:14.192Z,71.12
2022-09-23T08:55:49.795Z,70.10
2022-09-23T08:58:38.782Z,69.66
2022-09-23T09:01:20.437Z,69.80
2022-09-23T09:03:55.207Z,68.05
2022-09-23T09:06:45.582Z,67.16
2022-09-23T09:09:28.583Z,66.83
2022-09-23T09:12:07.594Z,67.09
2022-09-23T09:14:44.935Z,65.54
2022-09-23T09:17:24.824Z,65.37
2022-09-23T09:20:04.983Z,65.88
2022-09-23T09:22:54.046Z,66.34
2022-09-23T09:25:39.568Z,65.59
2022-09-23T09:28:19.035Z,65.28
2022-09-23T09:30:54.714Z,64.42
2022-09-23T09:33:33.263Z,65.73
2022-09-23T09:36:16.282Z,65.98
2022-09-23T09:38:47.776Z,65.56
2022-09-23T09:41:21.534Z,66.55
2022-09-23T09:43:58.906Z,64.90
2022-09-23T09:46:46.556Z,63.68
2022-09-23T09:49:26.038Z,62.17
2022-09-23T09:52:15.978Z,60.16
2022-09-23T09:54:49.353Z,61.64
2022-09-23T09:57:35.136Z,61.23
2022-09-23T10:00:35.832Z,59.97
2022-09-23T10:03:24.338Z,59.45
2022-09-23T10:05:57.800Z,60.30
2022-09-23T10:08:35.165Z,60.46
2022-09-23T10:11:15.221Z,58.40
2022-09-23T10:14:05.469Z,58.98
2022-09-23T10:16:37.329Z,58.66
2022-09-23T10:19:16.913Z,57.14
2022-09-23T10:21:57.033Z,57.16
2022-09-23T10:24:31.099Z,57.30
2022-09-23T10:27:07.707Z,57.89
2022-09-23T10:29:49.687Z,55.60
2022-09-23T10:32:30.434Z,56.05
2022-09-23T10:35:13.430Z,54.61
2022-09-23T10:37:46.802Z,54.27
2022-09-23T10:40:37.830Z,54.82
2022-09-23T10:43:37.840Z,56.06
2022-09-23T10:46:32.785Z,54.60
2022-09-23T10:49:23.346Z,52.81
2022-09-23T10:52:04.214Z,53.90
2022-09-23T10:54:46.537Z,53.70
2022-09-23T10:57:40.617Z,53.50
2022-09-23T11:00:28.584Z,53.54
2022-09-23T11:03:21.992Z,53.41
2022-09-23T11:06:02.821Z,53.05
2022-09-23T11:08:57.417Z,53.18
2022-09-23T11:11:39.459Z,53.24
2022-09-23T11:14:21.621Z,52.88
2022-09-23T11:17:13.658Z,53.19
2022-09-23T11:20:25.439Z,53.24
2022-09-23T11:23:18.925Z,52.70
2022-09-23T11:25:57.474Z,51.78
2022-09-23T11:28:46.765Z,50.77
2022-09-23T11:31:32.501Z,52.46
2022-09-23T11:34:22.533Z,51.53
2022-09-23T11:36:58.764Z,51.20
2022-09-23T11:39:34.288Z,48.65
2022-09-23T11:42:13.023Z,49.95
2022-09-23T11:44:50.129Z,50.63
2022-09-23T11:47:22.882Z,50.20
2022-09-23T11:50:00.176Z,50.72
2022-09-23T11:52:36.303Z,49.86
2022-09-23T11:55:22.055Z,48.62
2022-09-23T11:57:55.714Z,49.88
2022-09-23T12:00:32.637Z,50.56
2022-09-23T12:03:06.610Z,51.15
2022-09-23T12:05:41.101Z,51.58
2022-09-23T12:08:23.381Z,51.85
2022-09-23T12:10:59.713Z,51.01
2022-09-23T12:13:42.522Z,50.56
2022-09-23T12:16:37.936Z,48.16
2022-09-23T12:19:19.144Z,49.88
2022-09-23T12:22:09.063Z,49.62
2022-09-23T12:24:56.031Z,50.09
2022-09-23T12:27:36.293Z,47.89
2022-09-23T12:30:14.928Z,47.44
2022-09-23T12:32:47.009Z,47.59
2022-09-23T12:35:25.634Z,48.05
2022-09-23T12:37:56.838Z,49.88
2022-09-23T12:40:34.292Z,49.32
2022-09-23T12:43:05.447Z,48.42
2022-09-23T12:45:40.289Z,47.36
2022-09-23T12:48:40.879Z,46.98
2022-09-23T12:51:21.302Z,46.52
2022-09-23T12:54:16.353Z,46.86
2022-09-23T12:57:05.228Z,47.05
2022-09-23T12:59:56.690Z,47.16
2022-09-23T13:02:35.683Z,47.34
2022-09-23T13:05:38.241Z,46.76
2022-09-23T13:08:14.593Z,47.38
2022-09-23T13:10:50.984Z,46.22
2022-09-23T13:13:29.718Z,44.92
2022-09-23T13:16:13.956Z,44.87
2022-09-23T13:19:01.905Z,44.46
2022-09-23T13:22:13.700Z,45.27
2022-09-23T13:24:54.383Z,44.18
2022-09-23T13:27:31.353Z,45.39
2022-09-23T13:30:06.095Z,44.55
2022-09-23T13:32:40.239Z,45.33
2022-09-23T13:35:22.795Z,46.55
2022-09-23T13:37:55.353Z,45.85
2022-09-23T13:40:28.606Z,45.30
2022-09-23T13:43:03.173Z,45.49
2022-09-23T13:45:38.551Z,45.28
2022-09-23T13:48:13.856Z,44.78
2022-09-23T13:50:50.920Z,45.19
2022-09-23T13:53:27.235Z,46.11
2022-09-23T13:56:06.404Z,45.08
2022-09-23T13:58:38.458Z,46.52
2022-09-23T14:01:22.104Z,45.70
2022-09-23T14:03:53.337Z,46.58
2022-09-23T14:06:24.056Z,45.59
2022-09-23T14:08:55.351Z,45.60
2022-09-23T14:11:33.270Z,45.18
2022-09-23T14:14:07.235Z,45.89
2022-09-23T14:16:41.698Z,45.11
2022-09-23T14:19:19.585Z,46.24
2022-09-23T14:21:53.429Z,45.19
2022-09-23T14:24:27.217Z,45.80
2022-09-23T14:27:01.910Z,46.67
2022-09-23T14:29:35.526Z,46.49
2022-09-23T14:32:08.381Z,45.11
2022-09-23T14:34:48.905Z,46.33
2022-09-23T14:37:44.787Z,46.73
2022-09-23T14:40:19.642Z,45.80
2022-09-23T14:42:52.586Z,44.73
2022-09-23T14:45:26.446Z,45.59
2022-09-23T14:48:03.175Z,44.89
2022-09-23T14:50:40.064Z,43.34
2022-09-23T14:53:36.515Z,44.79
2022-09-23T14:56:24.120Z,43.96
2022-09-23T14:58:58.496Z,44.74
2022-09-23T15:01:36.725Z,44.87
2022-09-23T15:04:29.616Z,45.62
2022-09-23T15:07:03.532Z,45.75
2022-09-23T15:09:37.155Z,44.96
2022-09-23T15:12:13.313Z,43.15
2022-09-23T15:14:50.526Z,42.07
2022-09-23T15:17:32.673Z,42.73
2022-09-23T15:20:08.217Z,42.85
2022-09-23T15:22:48.543Z,42.37
2022-09-23T15:25:22.703Z,41.50
2022-09-23T15:28:02.504Z,42.27
2022-09-23T15:30:36.229Z,43.29
2022-09-23T15:33:09.082Z,43.97
2022-09-23T15:35:44.403Z,43.12
2022-09-23T15:38:17.701Z,43.07
2022-09-23T15:40:49.462Z,42.78
2022-09-23T15:43:23.371Z,40.98
2022-09-23T15:45:57.202Z,41.35
2022-09-23T15:48:32.655Z,41.47
2022-09-23T15:51:08.435Z,42.85
2022-09-23T15:53:39.624Z,42.69
2022-09-23T15:56:10.520Z,43.16
2022-09-23T15:58:41.683Z,43.82
2022-09-23T16:01:18.966Z,45.30
2022-09-23T16:03:50.107Z,47.20
2022-09-23T16:06:21.315Z,47.73
2022-09-23T16:08:52.425Z,48.72
2022-09-23T16:11:26.475Z,49.91
2022-09-23T16:13:57.579Z,49.71
2022-09-23T16:16:29.095Z,51.13
2022-09-23T16:19:00.169Z,52.09
2022-09-23T16:21:31.335Z,52.92
2022-09-23T16:24:02.619Z,53.26
2022-09-23T16:26:37.113Z,52.22
2022-09-23T16:29:09.516Z,52.41
2022-09-23T16:31:40.768Z,53.06
2022-09-23T16:34:11.645Z,54.39
2022-09-23T16:36:44.571Z,54.91
2022-09-23T16:39:16.192Z,55.50
2022-09-23T16:41:47.849Z,56.48
2022-09-23T16:44:18.643Z,57.36
2022-09-23T16:46:49.520Z,58.09
2022-09-23T16:49:21.081Z,58.73
2022-09-23T16:51:52.015Z,59.02
2022-09-23T16:54:23.965Z,59.40
2022-09-23T16:56:55.200Z,59.87
2022-09-23T16:59:46.992Z,60.66
2022-09-23T17:02:35.586Z,61.47
2022-09-23T17:05:07.419Z,61.84
2022-09-23T17:07:38.598Z,62.21
2022-09-23T17:10:11.840Z,62.67
2022-09-23T17:12:43.652Z,63.09
2022-09-23T17:15:15.165Z,63.55
2022-09-23T17:17:46.114Z,64.00
2022-09-23T17:20:17.308Z,64.33
2022-09-23T17:22:48.390Z,64.82
2022-09-23T17:25:19.598Z,65.22
2022-09-23T17:27:52.119Z,65.58
2022-09-23T17:30:23.222Z,66.03
2022-09-23T17:32:54.801Z,66.41
2022-09-23T17:35:25.775Z,66.88
2022-09-23T17:37:56.462Z,67.09
2022-09-23T17:40:27.531Z,67.34
2022-09-23T17:42:59.808Z,67.54
2022-09-23T17:45:30.859Z,67.89
2022-09-23T17:48:01.782Z,68.05
2022-09-23T17:50:32.813Z,68.40
2022-09-23T17:53:05.216Z,68.77
2022-09-23T17:55:36.187Z,69.09
2022-09-23T17:58:07.063Z,69.40
2022-09-23T18:00:38.241Z,69.59
2022-09-23T18:03:09.626Z,70.00
2022-09-23T18:05:38.816Z,70.07
2022-09-23T18:08:10.075Z,70.41
2022-09-23T18:10:40.903Z,70.64
2022-09-23T18:13:10.376Z,70.79
2022-09-23T18:15:41.944Z,70.94
2022-09-23T18:18:12.906Z,71.23
2022-09-23T18:20:43.644Z,71.34
2022-09-23T18:23:14.543Z,71.59
2022-09-23T18:25:45.657Z,71.67
2022-09-23T18:28:16.970Z,71.87
2022-09-23T18:30:54.149Z,71.98
2022-09-23T18:33:25.915Z,72.11
2022-09-23T18:35:56.734Z,72.32
2022-09-23T18:38:27.897Z,72.63
2022-09-23T18:40:58.058Z,72.74
2022-09-23T18:43:37.429Z,72.85
2022-09-23T18:46:14.133Z,73.17
2022-09-23T18:49:03.320Z,73.34
2022-09-23T18:51:35.024Z,73.49
2022-09-23T18:54:08.576Z,73.36
2022-09-23T18:56:43.834Z,73.16
2022-09-23T18:59:18.088Z,73.44
2022-09-23T19:01:50.848Z,73.66
2022-09-23T19:04:23.733Z,73.84
2022-09-23T19:06:56.550Z,73.90
2022-09-23T19:09:28.013Z,73.98
2022-09-23T19:11:59.211Z,74.09
2022-09-23T19:14:30.047Z,74.05
2022-09-23T19:16:59.564Z,73.95
2022-09-23T19:19:30.439Z,74.02
2022-09-23T19:22:01.578Z,74.10
2022-09-23T19:24:32.722Z,74.29
2022-09-23T19:27:04.369Z,74.41
2022-09-23T19:29:35.393Z,74.60
2022-09-23T19:32:06.514Z,74.89
2022-09-23T19:34:37.765Z,74.93
2022-09-23T19:37:09.318Z,75.06
2022-09-23T19:39:40.937Z,75.01
2022-09-23T19:42:12.229Z,75.10
2022-09-23T19:44:43.266Z,74.85
2022-09-23T19:47:15.688Z,74.99
2022-09-23T19:49:47.466Z,75.16
2022-09-23T19:52:18.530Z,75.37
2022-09-23T19:54:49.756Z,75.27
2022-09-23T19:57:20.673Z,75.26
2022-09-23T19:59:51.551Z,75.23
2022-09-23T20:02:22.758Z,75.34
2022-09-23T20:04:54.003Z,75.48
2022-09-23T20:07:24.951Z,75.56
2022-09-23T20:09:55.993Z,75.54
2022-09-23T20:12:27.437Z,75.52
2022-09-23T20:15:00.129Z,75.68
2022-09-23T20:17:32.590Z,75.74
2022-09-23T20:20:03.794Z,75.83
2022-09-23T20:22:35.228Z,75.91
2022-09-23T20:25:12.988Z,75.84
2022-09-23T20:27:43.934Z,76.14
2022-09-23T20:30:15.908Z,76.18
2022-09-23T20:32:47.236Z,76.06
2022-09-23T20:35:18.486Z,76.04
2022-09-23T20:37:47.986Z,76.12
2022-09-23T20:40:19.619Z,76.15
2022-09-23T20:42:51.484Z,76.12
2022-09-23T20:45:22.696Z,76.18
2022-09-23T20:47:53.417Z,76.04
2022-09-23T20:50:24.315Z,76.20
2022-09-23T20:52:56.515Z,76.10
2022-09-23T20:55:27.347Z,76.28
2022-09-23T20:57:58.125Z,76.24
2022-09-23T21:00:29.008Z,76.55
2022-09-23T21:03:00.084Z,76.70
2022-09-23T21:05:31.360Z,76.85
2022-09-23T21:08:03.127Z,76.71
2022-09-23T21:10:36.763Z,76.74
2022-09-23T21:13:07.904Z,76.82
2022-09-23T21:15:39.022Z,76.83
2022-09-23T21:18:14.567Z,76.98
2022-09-23T21:20:54.176Z,76.92
2022-09-23T21:23:29.309Z,77.22
2022-09-23T21:26:05.066Z,77.49
2022-09-23T21:28:37.653Z,77.48
2022-09-23T21:31:10.737Z,77.62
2022-09-23T21:33:42.003Z,77.70
2022-09-23T21:36:13.391Z,77.87
2022-09-23T21:38:45.080Z,77.93
2022-09-23T21:41:16.193Z,77.99
2022-09-23T21:43:48.362Z,78.17
2022-09-23T21:46:21.188Z,78.17
2022-09-23T21:48:53.993Z,78.25
2022-09-23T21:51:26.934Z,78.33
2022-09-23T21:53:59.183Z,78.25
2022-09-23T21:56:32.986Z,78.18
2022-09-23T21:59:04.029Z,78.37
2022-09-23T22:01:34.766Z,78.43
2022-09-23T22:04:10.343Z,78.69
2022-09-23T22:06:42.024Z,78.92
2022-09-23T22:09:17.010Z,78.88
2022-09-23T22:12:09.614Z,79.02
2022-09-23T22:14:41.073Z,79.05
2022-09-23T22:17:14.808Z,78.95
2022-09-23T22:19:47.174Z,79.04
2022-09-23T22:22:19.369Z,79.03
2022-09-23T22:24:51.967Z,79.00
2022-09-23T22:27:24.648Z,79.03
2022-09-23T22:30:24.360Z,79.06
2022-09-23T22:32:55.413Z,79.20
2022-09-23T22:35:24.730Z,79.15
2022-09-23T22:37:57.227Z,79.09
2022-09-23T22:40:28.354Z,78.97
2022-09-23T22:42:59.595Z,79.01
2022-09-23T22:45:30.464Z,78.91
2022-09-23T22:48:01.714Z,78.96
2022-09-23T22:50:32.624Z,78.98
2022-09-23T22:53:04.143Z,78.96
2022-09-23T22:55:34.884Z,79.03
2022-09-23T22:58:21.556Z,78.99
2022-09-23T23:00:59.470Z,79.07
2022-09-23T23:03:33.427Z,79.05
2022-09-23T23:06:05.422Z,79.10
2022-09-23T23:08:37.149Z,79.16
2022-09-23T23:11:11.099Z,79.18
2022-09-23T23:13:42.626Z,79.07
2022-09-23T23:16:14.611Z,79.13
2022-09-23T23:18:47.764Z,79.08
2022-09-23T23:21:20.919Z,79.25
2022-09-23T23:23:53.660Z,79.41
2022-09-23T23:26:27.685Z,79.48
2022-09-23T23:28:59.025Z,79.52
2022-09-23T23:31:32.246Z,79.45
2022-09-23T23:34:03.509Z,79.57
2022-09-23T23:36:34.412Z,79.63
2022-09-23T23:39:05.523Z,79.77
2022-09-23T23:41:34.838Z,79.93
2022-09-23T23:44:07.977Z,79.96
2022-09-23T23:46:40.060Z,79.97
2022-09-23T23:49:11.265Z,79.94
2022-09-23T23:51:41.284Z,80.07
2022-09-23T23:54:15.316Z,80.08
2022-09-23T23:56:46.645Z,80.23
2022-09-23T23:59:20.217Z,80.25
